Time;durP1;ratioP1;P1;durP2;ratioP2;P2;SDS_P1;SDS_P2;PMS_P1;PMS_P2;Temp;Humidity;BMP_temperature;BMP_pressure;BME280_temperature;BME280_humidity;BME280_pressure;Samples;Min_cycle;Max_cycle;Signal;HPM_P1;HPM_P2
2022/02/07 00:02:18;;;;;;;1.17;0.53;;;1.60;99.90;;;;;;5021716;28;20238;-94
2022/02/07 00:04:46;;;;;;;0.70;0.40;;;1.70;99.90;;;;;;5017608;28;20207;-94
2022/02/07 00:07:16;;;;;;;2.30;0.50;;;1.60;99.90;;;;;;5016914;28;20348;-94
2022/02/07 00:09:43;;;;;;;0.57;0.40;;;1.70;99.90;;;;;;5017461;28;20175;-95
2022/02/07 00:12:10;;;;;;;1.87;0.40;;;1.60;99.90;;;;;;5016943;28;20193;-94
2022/02/07 00:14:36;;;;;;;2.40;0.60;;;1.70;99.90;;;;;;5017177;28;20229;-94
2022/02/07 00:17:02;;;;;;;1.27;0.50;;;1.70;99.90;;;;;;5017769;28;20183;-94
2022/02/07 00:19:29;;;;;;;1.47;0.60;;;1.70;99.90;;;;;;5017624;28;20183;-95
2022/02/07 00:21:58;;;;;;;2.43;0.73;;;1.70;99.90;;;;;;5016802;28;20180;-95
2022/02/07 00:24:24;;;;;;;1.20;0.50;;;1.70;99.90;;;;;;5017297;28;20183;-94
2022/02/07 00:29:25;;;;;;;2.33;0.90;;;1.70;99.90;;;;;;5271590;23;20275;-91
2022/02/07 00:31:51;;;;;;;1.93;0.60;;;1.70;99.90;;;;;;5016853;28;20483;-92
2022/02/07 00:34:17;;;;;;;2.80;0.60;;;1.70;99.90;;;;;;5015789;28;20179;-92
2022/02/07 00:36:42;;;;;;;1.90;0.77;;;1.80;99.90;;;;;;5014673;28;20191;-92
2022/02/07 00:39:16;;;;;;;4.60;0.83;;;1.80;99.90;;;;;;5015503;28;20656;-92
2022/02/07 00:41:48;;;;;;;1.20;0.60;;;1.80;99.90;;;;;;5015606;28;20181;-92
2022/02/07 00:44:14;;;;;;;3.10;0.90;;;1.80;99.90;;;;;;5015568;28;20587;-92
2022/02/07 00:46:49;;;;;;;4.77;0.80;;;1.80;99.90;;;;;;5015367;28;20219;-92
2022/02/07 00:49:15;;;;;;;6.70;1.00;;;1.80;99.90;;;;;;5015463;28;20185;-91
2022/02/07 00:51:41;;;;;;;2.63;0.83;;;1.80;99.90;;;;;;5015351;28;20631;-92
2022/02/07 00:54:07;;;;;;;4.80;0.90;;;1.90;99.90;;;;;;5015318;28;20190;-93
2022/02/07 00:56:33;;;;;;;4.97;1.20;;;1.90;99.90;;;;;;5015161;28;20182;-91
2022/02/07 00:58:59;;;;;;;9.40;1.50;;;2.00;99.90;;;;;;5015195;28;20207;-92
2022/02/07 01:01:27;;;;;;;4.03;1.13;;;2.00;99.90;;;;;;5015175;28;20172;-92
2022/02/07 01:03:54;;;;;;;5.63;1.07;;;1.90;99.90;;;;;;5031522;28;20186;-93
2022/02/07 01:06:20;;;;;;;3.57;1.60;;;2.00;99.90;;;;;;5014779;28;20190;-92
2022/02/07 01:08:51;;;;;;;6.50;1.43;;;2.00;99.90;;;;;;5014583;28;20249;-92
2022/02/07 01:22:11;;;;;;;5.67;1.50;;;2.10;99.90;;;;;;5015853;28;20225;-93
2022/02/07 01:54:37;;;;;;;9.00;1.73;;;2.30;99.90;;;;;;5016017;28;20171;-91
2022/02/07 01:57:05;;;;;;;6.67;1.43;;;2.30;99.90;;;;;;5013942;28;20180;-92
2022/02/07 01:59:31;;;;;;;9.60;1.57;;;2.20;99.90;;;;;;5015628;28;20189;-92
2022/02/07 02:01:57;;;;;;;8.67;1.20;;;2.30;99.90;;;;;;5014235;28;20261;-92
2022/02/07 02:04:24;;;;;;;9.43;1.43;;;2.30;99.90;;;;;;5014465;28;20183;-93
2022/02/07 02:06:51;;;;;;;8.77;1.70;;;2.20;99.90;;;;;;5014273;28;20609;-94
2022/02/07 02:09:17;;;;;;;12.33;1.47;;;2.20;99.90;;;;;;5014328;28;20182;-93
2022/02/07 02:11:45;;;;;;;8.70;1.30;;;2.20;99.90;;;;;;5015210;28;20195;-93
2022/02/07 02:17:13;;;;;;;9.70;1.47;;;2.40;99.90;;;;;;5015329;28;20158;-93
2022/02/07 02:47:45;;;;;;;11.13;2.07;;;2.30;99.90;;;;;;5019071;28;20170;-93
2022/02/07 02:50:28;;;;;;;5.80;1.93;;;2.30;99.90;;;;;;5017628;28;20277;-92
2022/02/07 02:52:55;;;;;;;7.20;1.50;;;2.40;99.90;;;;;;5017772;28;20212;-92
2022/02/07 02:55:21;;;;;;;15.67;2.47;;;2.30;99.90;;;;;;5017243;28;20178;-93
2022/02/07 02:57:46;;;;;;;8.10;1.37;;;2.40;99.90;;;;;;5017519;28;20535;-92
2022/02/07 03:00:13;;;;;;;8.60;1.73;;;2.30;99.90;;;;;;5017510;28;20598;-93
2022/02/07 03:02:39;;;;;;;9.77;1.60;;;2.40;99.90;;;;;;5017328;28;20183;-93
2022/02/07 03:05:05;;;;;;;9.47;1.40;;;2.40;99.90;;;;;;5017416;28;20182;-93
2022/02/07 03:07:30;;;;;;;6.57;1.40;;;2.30;99.90;;;;;;5017347;28;20182;-91
2022/02/07 03:09:59;;;;;;;7.40;1.50;;;2.40;99.90;;;;;;5017164;28;20190;-91
2022/02/07 03:12:33;;;;;;;6.40;1.63;;;2.30;99.90;;;;;;5017176;28;20175;-92
2022/02/07 03:16:36;;;;;;;9.40;1.47;;;2.30;99.90;;;;;;5017048;28;20194;-92
2022/02/07 03:17:44;;;;;;;5.83;1.10;;;2.30;99.90;;;;;;5018221;28;20203;-91
2022/02/07 03:20:10;;;;;;;10.97;1.73;;;2.30;99.90;;;;;;5017091;28;20209;-91
2022/02/07 03:22:41;;;;;;;9.33;1.80;;;2.30;99.90;;;;;;5017103;28;20232;-92
2022/02/07 03:25:08;;;;;;;12.20;1.43;;;2.20;99.90;;;;;;5017099;28;20179;-92
2022/02/07 03:27:34;;;;;;;7.20;1.70;;;2.30;99.90;;;;;;5016853;28;20581;-91
2022/02/07 03:30:03;;;;;;;7.20;1.43;;;2.30;99.90;;;;;;5016950;28;20277;-92
2022/02/07 03:32:29;;;;;;;10.53;2.03;;;2.30;99.90;;;;;;5016513;28;20183;-91
2022/02/07 03:34:54;;;;;;;8.53;1.70;;;2.30;99.90;;;;;;5016931;28;20265;-92
2022/02/07 03:37:20;;;;;;;14.07;1.53;;;2.30;99.90;;;;;;5016999;28;20190;-92
2022/02/07 03:39:46;;;;;;;8.27;1.80;;;2.40;99.90;;;;;;5016826;28;20195;-92
2022/02/07 03:42:14;;;;;;;10.47;2.43;;;2.40;99.90;;;;;;4996764;28;20618;-92
2022/02/07 03:44:39;;;;;;;7.33;1.50;;;2.50;99.90;;;;;;4997477;28;20250;-92
2022/02/07 03:47:05;;;;;;;6.20;1.50;;;2.50;99.90;;;;;;4997295;28;20606;-92
2022/02/07 03:49:31;;;;;;;8.67;1.73;;;2.60;99.90;;;;;;4997015;28;20179;-93
2022/02/07 03:51:57;;;;;;;6.53;1.50;;;2.60;99.90;;;;;;4997038;28;20175;-92
2022/02/07 03:54:23;;;;;;;4.90;1.40;;;2.50;99.90;;;;;;4997422;28;20215;-93
2022/02/07 03:56:48;;;;;;;11.53;2.10;;;2.50;99.90;;;;;;4996975;28;20172;-92
2022/02/07 03:59:14;;;;;;;7.33;1.70;;;2.40;99.90;;;;;;4996765;28;20303;-92
2022/02/07 04:01:41;;;;;;;10.77;2.23;;;2.50;99.90;;;;;;4996969;28;20187;-91
2022/02/07 04:04:07;;;;;;;4.80;1.33;;;2.50;99.90;;;;;;4997159;28;20612;-92
2022/02/07 04:06:32;;;;;;;8.93;1.43;;;2.50;99.90;;;;;;4996916;28;20187;-91
2022/02/07 04:09:04;;;;;;;9.20;1.50;;;2.60;99.90;;;;;;4997769;28;20175;-91
2022/02/07 04:11:44;;;;;;;9.27;2.23;;;2.50;99.90;;;;;;5010038;28;20187;-92
2022/02/07 04:14:16;;;;;;;9.67;1.53;;;2.40;99.90;;;;;;5016032;28;20606;-91
2022/02/07 04:16:42;;;;;;;8.00;1.67;;;2.50;99.90;;;;;;5032726;28;20171;-92
2022/02/07 04:19:20;;;;;;;5.53;1.43;;;2.40;99.90;;;;;;5015996;28;20269;-92
2022/02/07 04:21:50;;;;;;;6.03;1.30;;;2.40;99.90;;;;;;5016105;28;20206;-92
2022/02/07 04:24:17;;;;;;;4.13;1.57;;;2.40;99.90;;;;;;5016073;28;20515;-92
2022/02/07 04:26:43;;;;;;;4.00;1.10;;;2.40;99.90;;;;;;5015848;28;20652;-91
2022/02/07 04:29:09;;;;;;;6.53;1.53;;;2.50;99.90;;;;;;5015360;28;20266;-92
2022/02/07 04:31:40;;;;;;;4.23;1.50;;;2.60;99.90;;;;;;5015829;28;20258;-92
2022/02/07 04:34:06;;;;;;;6.10;1.77;;;2.70;99.90;;;;;;5015702;28;20560;-91
2022/02/07 04:36:31;;;;;;;7.03;1.67;;;2.70;99.90;;;;;;5014882;28;20268;-92
2022/02/07 04:38:57;;;;;;;4.83;1.20;;;2.60;99.90;;;;;;5015411;28;20241;-92
2022/02/07 04:41:24;;;;;;;7.63;1.80;;;2.50;99.90;;;;;;5015700;28;20180;-92
2022/02/07 04:43:56;;;;;;;8.30;1.47;;;2.40;99.90;;;;;;5013885;28;20191;-92
2022/02/07 04:49:41;;;;;;;5.03;1.13;;;2.50;99.90;;;;;;5016780;28;21029;-91
2022/02/07 04:52:07;;;;;;;5.60;1.03;;;2.20;99.90;;;;;;5012696;28;20190;-92
2022/02/07 04:57:12;;;;;;;6.13;1.30;;;1.80;99.90;;;;;;5016821;28;20182;-92
2022/02/07 05:00:00;;;;;;;2.33;1.00;;;1.70;99.90;;;;;;5015078;28;20181;-93
2022/02/07 05:02:46;;;;;;;3.80;1.10;;;1.70;99.90;;;;;;5014705;28;20179;-92
2022/02/07 05:16:28;;;;;;;2.77;1.10;;;1.50;99.90;;;;;;5016391;28;20181;-92
2022/02/07 05:19:02;;;;;;;3.07;1.20;;;1.50;99.90;;;;;;5014958;28;20225;-92
2022/02/07 05:21:27;;;;;;;3.47;1.30;;;1.50;99.90;;;;;;5014994;28;20502;-92
2022/02/07 05:24:03;;;;;;;7.00;1.50;;;1.40;99.90;;;;;;5014850;28;20262;-91
2022/02/07 05:26:29;;;;;;;4.70;1.50;;;1.50;99.90;;;;;;5014626;28;20237;-91
2022/02/07 05:28:59;;;;;;;3.40;1.13;;;1.50;99.90;;;;;;5014518;28;20666;-92
2022/02/07 05:31:24;;;;;;;7.00;1.30;;;1.60;99.90;;;;;;5014837;28;20179;-92
2022/02/07 05:33:58;;;;;;;4.27;1.10;;;1.70;99.90;;;;;;5014805;28;20178;-93
2022/02/07 05:36:27;;;;;;;4.20;1.50;;;1.80;99.90;;;;;;5014804;28;20179;-91
2022/02/07 05:38:57;;;;;;;5.73;1.27;;;1.90;99.90;;;;;;5014574;28;20214;-92
2022/02/07 05:41:23;;;;;;;4.50;1.30;;;2.00;99.90;;;;;;5014806;28;20181;-91
2022/02/07 05:43:51;;;;;;;5.07;1.30;;;2.00;99.90;;;;;;5014714;28;20183;-92
2022/02/07 05:46:17;;;;;;;4.07;1.07;;;2.10;99.90;;;;;;5014555;28;20182;-92
2022/02/07 05:48:43;;;;;;;4.17;1.13;;;2.20;99.90;;;;;;5014674;28;20194;-91
2022/02/07 05:51:09;;;;;;;4.77;1.17;;;2.20;99.90;;;;;;5014470;28;20174;-92
2022/02/07 05:53:39;;;;;;;5.77;1.10;;;2.20;99.90;;;;;;5014467;28;20191;-93
2022/02/07 05:56:05;;;;;;;12.60;1.60;;;2.30;99.90;;;;;;5014044;28;20196;-93
2022/02/07 05:58:31;;;;;;;3.30;1.07;;;2.30;99.90;;;;;;5014208;28;20310;-91
2022/02/07 06:00:56;;;;;;;5.93;1.10;;;2.40;99.90;;;;;;5014382;28;20177;-93
2022/02/07 06:03:24;;;;;;;8.87;1.30;;;2.50;99.90;;;;;;5014305;28;20596;-92
2022/02/07 06:05:50;;;;;;;6.40;1.13;;;2.50;99.90;;;;;;5015449;28;20177;-91
2022/02/07 06:08:17;;;;;;;5.93;1.47;;;2.50;99.90;;;;;;5014332;28;20519;-92
2022/02/07 06:10:44;;;;;;;9.23;1.40;;;2.50;99.90;;;;;;5030885;28;20187;-92
2022/02/07 06:13:17;;;;;;;6.63;1.10;;;2.50;99.90;;;;;;5014062;28;20240;-93
2022/02/07 06:15:43;;;;;;;7.90;1.33;;;2.50;99.90;;;;;;5030653;28;20179;-91
2022/02/07 06:18:12;;;;;;;11.20;1.50;;;2.50;99.90;;;;;;5030730;28;20680;-92
2022/02/07 06:20:38;;;;;;;8.33;1.20;;;2.50;99.90;;;;;;5014206;28;20183;-92
2022/02/07 06:23:11;;;;;;;5.80;1.23;;;2.50;99.90;;;;;;5015425;28;20193;-93
2022/02/07 06:25:37;;;;;;;7.50;1.67;;;2.50;99.90;;;;;;5014330;28;20168;-92
2022/02/07 06:28:03;;;;;;;13.73;1.80;;;2.60;99.90;;;;;;5013766;28;20226;-92
2022/02/07 06:30:29;;;;;;;11.73;1.60;;;2.60;99.90;;;;;;5030443;28;20285;-93
2022/02/07 06:33:06;;;;;;;10.30;2.10;;;2.60;99.90;;;;;;5014253;28;20263;-92
2022/02/07 06:35:32;;;;;;;13.83;2.80;;;2.60;99.90;;;;;;5015309;28;20613;-92
2022/02/07 06:37:58;;;;;;;12.00;2.43;;;2.70;99.90;;;;;;5029446;28;20215;-93
2022/02/07 06:40:24;;;;;;;5.53;1.70;;;2.70;99.90;;;;;;5013922;28;20183;-92
2022/02/07 06:42:54;;;;;;;9.03;2.40;;;2.80;99.90;;;;;;5013740;28;20183;-92
2022/02/07 06:45:19;;;;;;;12.03;1.97;;;2.80;99.90;;;;;;5014007;28;20176;-93
2022/02/07 06:47:45;;;;;;;13.97;2.50;;;2.80;99.90;;;;;;5013963;28;20183;-92
2022/02/07 06:50:11;;;;;;;16.80;2.97;;;2.80;99.90;;;;;;5014056;28;20210;-92
2022/02/07 06:52:37;;;;;;;16.27;2.30;;;2.90;99.90;;;;;;5013780;28;20187;-92
2022/02/07 06:55:03;;;;;;;15.73;2.13;;;2.90;99.90;;;;;;5013944;28;20638;-94
2022/02/07 06:57:29;;;;;;;19.07;3.23;;;2.90;99.90;;;;;;5030467;28;20184;-94
2022/02/07 06:59:55;;;;;;;15.00;3.00;;;2.90;99.90;;;;;;5013768;28;20270;-92
2022/02/07 07:02:26;;;;;;;13.87;2.57;;;3.00;99.90;;;;;;5013965;28;20183;-93
2022/02/07 07:04:53;;;;;;;17.37;2.77;;;3.00;99.90;;;;;;5013926;28;20171;-92
2022/02/07 07:07:20;;;;;;;18.00;2.40;;;3.00;99.90;;;;;;5030720;28;20189;-93
2022/02/07 07:09:47;;;;;;;13.97;2.70;;;3.20;99.90;;;;;;5017383;28;20186;-93
2022/02/07 07:12:13;;;;;;;17.37;2.93;;;3.20;99.90;;;;;;5017195;28;20736;-93
2022/02/07 07:15:05;;;;;;;14.03;2.67;;;3.20;99.90;;;;;;5017141;28;20183;-92
2022/02/07 07:17:30;;;;;;;14.00;3.00;;;3.10;99.90;;;;;;5017417;28;20167;-95
2022/02/07 07:20:01;;;;;;;14.07;2.17;;;3.10;99.90;;;;;;5017151;28;20629;-93
2022/02/07 07:22:27;;;;;;;17.33;2.63;;;3.20;99.90;;;;;;5018177;28;20167;-93
2022/02/07 07:24:54;;;;;;;15.77;3.83;;;3.10;99.90;;;;;;5016989;28;20175;-93
2022/02/07 07:27:24;;;;;;;11.60;2.33;;;3.20;99.90;;;;;;5017026;28;20178;-92
2022/02/07 07:29:50;;;;;;;15.37;2.50;;;3.20;99.90;;;;;;5016824;28;20231;-93
2022/02/07 07:32:21;;;;;;;14.20;2.50;;;3.30;99.90;;;;;;5016980;28;20186;-93
2022/02/07 07:34:52;;;;;;;13.63;2.83;;;3.30;99.90;;;;;;5017120;28;20178;-93
2022/02/07 07:37:18;;;;;;;16.63;2.73;;;3.30;99.90;;;;;;5016633;28;20262;-93
2022/02/07 07:39:43;;;;;;;13.37;2.30;;;3.20;99.90;;;;;;5016326;28;20661;-93
2022/02/07 07:42:10;;;;;;;15.90;2.60;;;3.20;99.90;;;;;;5016587;28;20181;-92
2022/02/07 07:44:46;;;;;;;11.03;2.30;;;3.20;99.90;;;;;;5033310;28;20179;-93
2022/02/07 07:47:17;;;;;;;11.53;2.40;;;3.30;99.90;;;;;;5033286;28;20171;-93
2022/02/07 07:49:48;;;;;;;16.23;2.73;;;3.30;99.90;;;;;;5016480;28;20182;-93
2022/02/07 07:52:18;;;;;;;10.50;2.27;;;3.40;99.90;;;;;;5016430;28;20176;-93
2022/02/07 08:03:09;;;;;;;10.27;2.13;;;3.50;99.90;;;;;;5018015;28;20232;-93
2022/02/07 08:05:54;;;;;;;8.30;2.10;;;3.50;99.90;;;;;;5016454;28;20178;-94
2022/02/07 08:08:27;;;;;;;10.33;2.10;;;3.50;99.90;;;;;;5016367;28;20176;-94
2022/02/07 08:11:04;;;;;;;12.30;1.77;;;3.50;99.90;;;;;;5016007;28;20266;-93
2022/02/07 08:13:31;;;;;;;13.57;2.33;;;3.50;99.90;;;;;;5032956;28;20573;-93
2022/02/07 08:15:58;;;;;;;10.23;1.57;;;3.50;99.90;;;;;;5016063;28;20184;-93
2022/02/07 08:18:23;;;;;;;8.77;1.50;;;3.60;99.90;;;;;;5016940;28;20293;-94
2022/02/07 08:20:49;;;;;;;12.37;1.80;;;3.50;99.90;;;;;;5016148;28;20651;-94
2022/02/07 08:23:15;;;;;;;11.27;2.03;;;3.60;99.90;;;;;;5015940;28;20175;-92
2022/02/07 08:25:49;;;;;;;12.20;2.30;;;3.70;99.90;;;;;;5015850;28;20222;-93
2022/02/07 08:28:14;;;;;;;10.97;2.00;;;3.70;99.90;;;;;;5015710;28;20234;-93
2022/02/07 08:30:40;;;;;;;7.70;1.67;;;3.70;99.90;;;;;;5015866;28;20179;-93
2022/02/07 08:33:06;;;;;;;9.57;2.50;;;3.70;99.90;;;;;;5015891;28;20187;-94
2022/02/07 08:35:33;;;;;;;8.10;1.97;;;3.70;99.90;;;;;;5015636;28;20179;-93
2022/02/07 08:37:59;;;;;;;14.73;2.27;;;3.80;99.90;;;;;;5015789;28;20296;-94
2022/02/07 08:40:27;;;;;;;14.27;2.77;;;3.80;99.90;;;;;;5015836;28;20625;-94
2022/02/07 08:42:56;;;;;;;7.20;2.13;;;3.90;99.90;;;;;;5014889;28;20225;-94
2022/02/07 08:45:26;;;;;;;15.33;2.93;;;4.00;99.90;;;;;;5010870;28;20255;-94
2022/02/07 08:47:56;;;;;;;14.30;2.23;;;4.00;99.90;;;;;;5032185;28;20258;-93
2022/02/07 08:50:24;;;;;;;12.50;2.63;;;4.10;99.90;;;;;;5015620;28;20187;-94
2022/02/07 08:52:51;;;;;;;13.10;2.07;;;4.10;99.90;;;;;;5015523;28;20183;-94
2022/02/07 08:55:33;;;;;;;14.97;2.97;;;4.10;99.90;;;;;;5015584;28;20187;-95
2022/02/07 08:58:09;;;;;;;14.10;2.40;;;4.20;99.90;;;;;;5015439;28;20282;-93
2022/02/07 09:00:50;;;;;;;14.57;2.53;;;4.20;99.90;;;;;;5015319;28;20175;-94
2022/02/07 09:10:49;;;;;;;7.87;2.23;;;4.60;99.90;;;;;;5016629;28;20189;-94
2022/02/07 09:13:18;;;;;;;16.50;2.50;;;4.60;99.90;;;;;;5015138;28;20268;-94
2022/02/07 09:16:04;;;;;;;11.67;2.20;;;4.60;99.90;;;;;;5015130;28;20191;-93
2022/02/07 09:18:31;;;;;;;10.63;2.57;;;4.50;99.90;;;;;;5014948;28;20549;-94
2022/02/07 09:20:59;;;;;;;13.77;2.30;;;4.70;99.90;;;;;;5015136;28;20179;-94
2022/02/07 09:23:27;;;;;;;11.13;2.40;;;4.70;99.90;;;;;;5015145;28;20191;-93
2022/02/07 09:25:56;;;;;;;14.77;2.67;;;4.80;99.90;;;;;;5014526;28;20277;-93
2022/02/07 09:28:22;;;;;;;12.73;2.40;;;4.80;99.90;;;;;;5014685;28;20227;-94
2022/02/07 09:30:49;;;;;;;11.87;2.83;;;4.80;99.90;;;;;;5014468;28;20610;-92
2022/02/07 09:33:15;;;;;;;13.47;2.43;;;4.90;99.90;;;;;;5015020;28;20625;-93
2022/02/07 09:35:42;;;;;;;13.43;2.57;;;4.90;99.90;;;;;;5014535;28;20233;-94
2022/02/07 09:38:09;;;;;;;16.23;2.43;;;4.90;99.90;;;;;;5014612;28;20713;-93
2022/02/07 09:40:35;;;;;;;11.40;2.13;;;4.90;99.90;;;;;;5013797;28;20268;-95
2022/02/07 09:43:01;;;;;;;11.47;2.67;;;4.90;99.90;;;;;;5021793;28;20217;-93
2022/02/07 09:45:41;;;;;;;13.10;2.70;;;4.80;99.90;;;;;;5031092;28;20590;-92
2022/02/07 09:48:15;;;;;;;10.50;2.63;;;4.90;99.90;;;;;;5014345;28;20605;-92
2022/02/07 09:50:45;;;;;;;11.37;2.47;;;4.80;99.90;;;;;;5015382;28;20183;-92
2022/02/07 09:53:17;;;;;;;12.60;2.27;;;4.70;99.90;;;;;;5014573;28;20190;-92
2022/02/07 09:55:52;;;;;;;10.43;2.27;;;4.70;99.90;;;;;;5013670;28;20261;-95
2022/02/07 09:58:32;;;;;;;12.73;2.30;;;4.80;99.90;;;;;;5031046;28;20211;-95
2022/02/07 10:01:23;;;;;;;27.93;3.67;;;4.70;99.90;;;;;;5031105;28;20179;-96
2022/02/07 10:04:16;;;;;;;16.03;2.93;;;4.80;99.90;;;;;;5030848;28;20633;-96
2022/02/07 10:07:19;;;;;;;16.10;3.23;;;5.00;99.90;;;;;;5030007;28;20195;-94
2022/02/07 10:09:44;;;;;;;20.10;3.73;;;5.00;99.90;;;;;;5014673;28;20203;-96
2022/02/07 10:37:06;;;;;;;20.33;3.90;;;5.60;99.90;;;;;;5016692;28;20255;-95
2022/02/07 10:39:36;;;;;;;23.60;4.00;;;5.70;99.90;;;;;;5015639;28;20271;-96
2022/02/07 10:42:56;;;;;;;19.73;3.57;;;5.70;99.90;;;;;;5020183;28;20182;-95
2022/02/07 10:45:00;;;;;;;26.57;4.73;;;5.70;99.90;;;;;;5036159;28;20197;-96
2022/02/07 10:47:38;;;;;;;22.23;4.53;;;5.90;99.90;;;;;;5038707;28;20174;-96
2022/02/07 10:50:11;;;;;;;16.90;4.10;;;5.90;99.90;;;;;;5038286;28;20244;-96
2022/02/07 10:52:59;;;;;;;20.37;4.00;;;5.80;99.90;;;;;;5038608;28;20189;-96
2022/02/07 10:55:32;;;;;;;18.30;3.63;;;5.90;99.90;;;;;;5023575;28;20233;-96
2022/02/07 10:58:01;;;;;;;28.27;4.53;;;5.80;99.90;;;;;;5019353;28;20207;-96
2022/02/07 11:00:38;;;;;;;19.07;4.07;;;5.90;99.90;;;;;;5021982;28;20183;-96
2022/02/07 11:05:50;;;;;;;25.83;3.83;;;5.90;99.90;;;;;;5018610;28;20194;-94
2022/02/07 11:08:41;;;;;;;12.70;3.13;;;5.90;99.90;;;;;;5038433;28;20183;-95
2022/02/07 11:11:34;;;;;;;18.70;3.20;;;6.00;99.90;;;;;;5035583;28;20187;-96
2022/02/07 11:25:17;;;;;;;16.13;3.50;;;5.80;99.90;;;;;;5019938;28;20210;-95
2022/02/07 11:27:53;;;;;;;22.20;3.80;;;6.00;99.90;;;;;;5016650;28;20514;-96
2022/02/07 11:30:39;;;;;;;21.23;3.20;;;6.10;99.90;;;;;;4997215;28;20196;-94
2022/02/07 11:33:07;;;;;;;26.27;6.17;;;6.20;99.90;;;;;;4998179;28;20255;-94
2022/02/07 11:35:49;;;;;;;21.03;3.50;;;6.30;99.90;;;;;;4996580;28;20606;-95
2022/02/07 11:38:17;;;;;;;14.57;3.60;;;6.40;99.90;;;;;;4997745;28;20713;-94
2022/02/07 11:41:04;;;;;;;19.07;3.80;;;6.50;99.90;;;;;;4996753;28;20200;-94
2022/02/07 11:43:35;;;;;;;18.07;2.97;;;6.50;99.90;;;;;;4997296;28;20607;-93
2022/02/07 11:46:05;;;;;;;22.93;4.27;;;6.60;99.90;;;;;;4996440;28;20497;-95
2022/02/07 11:48:35;;;;;;;20.73;3.20;;;6.60;99.90;;;;;;4998251;28;20613;-96
2022/02/07 11:51:23;;;;;;;23.63;3.83;;;6.70;99.90;;;;;;4997173;28;20615;-95
2022/02/07 11:53:55;;;;;;;11.73;2.83;;;6.90;99.90;;;;;;5014417;28;20563;-96
2022/02/07 11:56:42;;;;;;;18.47;3.17;;;7.00;99.90;;;;;;4996709;28;20619;-95
2022/02/07 12:02:04;;;;;;;22.30;3.70;;;7.00;99.90;;;;;;4999784;28;20259;-94
2022/02/07 12:04:41;;;;;;;18.07;3.13;;;7.20;99.90;;;;;;4997731;28;20507;-94
2022/02/07 12:07:30;;;;;;;22.93;4.57;;;7.30;99.90;;;;;;5015575;28;20183;-94
2022/02/07 12:12:38;;;;;;;19.80;4.03;;;7.10;99.90;;;;;;4978744;28;20181;-94
2022/02/07 12:15:06;;;;;;;17.03;3.60;;;7.10;99.90;;;;;;4993607;28;20589;-94
2022/02/07 12:17:46;;;;;;;19.60;3.60;;;7.10;99.90;;;;;;4997961;28;20577;-94
2022/02/07 12:20:18;;;;;;;19.37;3.60;;;7.10;99.90;;;;;;4999408;28;20230;-95
2022/02/07 12:22:57;;;;;;;19.23;3.17;;;7.00;99.90;;;;;;4999117;28;20179;-93
2022/02/07 12:25:49;;;;;;;19.10;3.03;;;6.90;99.90;;;;;;4998021;28;20191;-93
2022/02/07 12:28:27;;;;;;;19.00;2.93;;;7.00;99.90;;;;;;4999374;28;20204;-96
2022/02/07 12:33:39;;;;;;;17.10;3.10;;;7.30;99.90;;;;;;5018342;28;20217;-96
2022/02/07 12:36:07;;;;;;;12.47;2.80;;;7.40;99.90;;;;;;5017735;28;20176;-96
2022/02/07 12:38:37;;;;;;;18.67;3.00;;;7.30;99.90;;;;;;5016655;28;20199;-94
2022/02/07 12:41:05;;;;;;;19.47;3.50;;;7.10;99.90;;;;;;5016425;28;20183;-94
2022/02/07 12:43:34;;;;;;;16.37;3.17;;;7.00;99.90;;;;;;5016894;28;20551;-94
2022/02/07 12:46:07;;;;;;;16.60;3.33;;;6.90;99.90;;;;;;5018048;28;20179;-94
2022/02/07 12:48:41;;;;;;;20.27;3.37;;;6.90;99.90;;;;;;5017094;28;20606;-95
2022/02/07 12:51:07;;;;;;;12.83;2.57;;;6.90;99.90;;;;;;5017511;28;20617;-94
2022/02/07 12:53:33;;;;;;;13.73;3.37;;;7.00;99.90;;;;;;5016095;28;20187;-95
2022/02/07 12:56:05;;;;;;;16.80;3.10;;;7.10;99.90;;;;;;5018617;28;20183;-95
2022/02/07 12:58:48;;;;;;;19.60;3.93;;;7.10;99.90;;;;;;5016146;28;20207;-94
2022/02/07 13:01:21;;;;;;;14.37;3.00;;;7.10;99.90;;;;;;5018100;28;20306;-94
2022/02/07 13:04:07;;;;;;;12.30;2.80;;;7.10;99.90;;;;;;5017519;28;20182;-94
2022/02/07 13:06:35;;;;;;;17.77;2.53;;;7.00;99.90;;;;;;5015403;28;20270;-94
2022/02/07 13:09:19;;;;;;;10.03;2.30;;;6.90;99.90;;;;;;5016751;28;20194;-95
2022/02/07 13:12:00;;;;;;;19.30;2.50;;;6.80;99.90;;;;;;5015878;28;20183;-93
2022/02/07 13:14:27;;;;;;;11.13;2.13;;;6.80;99.90;;;;;;5014868;28;20274;-93
2022/02/07 13:16:53;;;;;;;8.67;2.27;;;6.80;99.90;;;;;;5032138;28;20175;-94
2022/02/07 13:19:28;;;;;;;8.90;2.00;;;6.80;99.90;;;;;;5032099;28;20234;-93
2022/02/07 13:21:54;;;;;;;10.53;2.40;;;6.70;99.90;;;;;;5015292;28;20175;-94
2022/02/07 13:24:22;;;;;;;8.63;2.27;;;6.70;99.90;;;;;;5015717;28;20305;-95
2022/02/07 13:26:56;;;;;;;9.77;1.90;;;6.80;99.90;;;;;;5033229;28;20668;-95
2022/02/07 13:29:26;;;;;;;12.90;2.57;;;6.60;99.90;;;;;;5025243;28;20322;-94
2022/02/07 13:32:04;;;;;;;9.57;2.00;;;6.60;99.90;;;;;;5033521;28;20206;-94
2022/02/07 13:34:33;;;;;;;12.27;2.20;;;6.60;99.90;;;;;;5033439;28;20167;-96
2022/02/07 13:37:16;;;;;;;7.10;1.37;;;6.50;99.90;;;;;;5034008;28;20613;-96
2022/02/07 13:40:04;;;;;;;9.83;2.27;;;6.40;99.90;;;;;;5017605;28;20212;-95
2022/02/07 13:42:37;;;;;;;14.03;2.50;;;6.40;99.90;;;;;;5033747;28;20167;-94
2022/02/07 13:45:12;;;;;;;11.03;2.20;;;6.30;99.90;;;;;;5017510;28;20182;-96
2022/02/07 13:47:43;;;;;;;14.37;2.30;;;6.20;99.90;;;;;;5018688;28;20613;-94
2022/02/07 13:50:18;;;;;;;9.97;2.30;;;6.00;99.90;;;;;;5018526;28;20175;-93
2022/02/07 13:52:48;;;;;;;12.43;2.87;;;5.70;99.90;;;;;;5020146;28;20178;-94
2022/02/07 13:55:28;;;;;;;10.13;2.10;;;5.40;99.90;;;;;;5019945;28;20273;-93
2022/02/07 13:58:09;;;;;;;10.40;2.30;;;5.20;99.90;;;;;;5019746;28;20265;-94
2022/02/07 14:00:41;;;;;;;11.70;2.33;;;5.20;99.90;;;;;;5020077;28;20175;-96
2022/02/07 14:03:10;;;;;;;13.80;2.20;;;5.20;99.90;;;;;;5018880;28;20187;-94
2022/02/07 14:05:41;;;;;;;10.97;2.67;;;5.20;99.90;;;;;;5019453;28;20622;-93
2022/02/07 14:08:31;;;;;;;11.50;1.90;;;5.20;99.90;;;;;;5037209;28;20171;-94
2022/02/07 14:10:59;;;;;;;12.30;1.87;;;5.20;99.90;;;;;;5036470;28;20175;-95
2022/02/07 14:13:25;;;;;;;14.57;2.90;;;5.20;99.90;;;;;;5037164;28;20186;-95
2022/02/07 14:15:50;;;;;;;10.40;2.07;;;5.10;99.90;;;;;;5035027;28;20190;-94
2022/02/07 14:18:25;;;;;;;13.77;2.53;;;5.10;99.90;;;;;;5024118;28;20195;-94
2022/02/07 14:20:53;;;;;;;15.57;2.87;;;5.10;99.90;;;;;;5024236;28;20604;-94
2022/02/07 14:23:20;;;;;;;7.50;2.07;;;5.20;99.90;;;;;;5039044;28;20178;-94
2022/02/07 14:25:52;;;;;;;14.13;1.90;;;5.20;99.90;;;;;;5021616;28;20182;-96
2022/02/07 14:28:21;;;;;;;11.37;2.23;;;5.20;99.90;;;;;;5038475;28;20495;-96
2022/02/07 14:30:47;;;;;;;13.33;2.13;;;5.30;99.90;;;;;;5024464;28;20238;-95
2022/02/07 14:33:13;;;;;;;9.97;2.10;;;5.20;99.90;;;;;;5022020;28;20209;-96
2022/02/07 14:35:39;;;;;;;10.67;2.00;;;5.30;99.90;;;;;;5006204;28;20183;-96
2022/02/07 14:38:06;;;;;;;9.10;2.37;;;5.30;99.90;;;;;;5020519;28;20210;-96
2022/02/07 14:40:41;;;;;;;15.77;2.40;;;5.20;99.90;;;;;;5022725;28;20213;-96
2022/02/07 14:43:15;;;;;;;13.77;2.63;;;5.20;99.90;;;;;;5025896;28;20167;-93
2022/02/07 14:45:53;;;;;;;14.53;2.50;;;5.20;99.90;;;;;;5024803;28;20168;-96
2022/02/07 14:48:20;;;;;;;13.20;2.60;;;5.20;99.90;;;;;;5024798;28;20175;-96
2022/02/07 14:50:46;;;;;;;15.50;2.10;;;5.30;99.90;;;;;;5022489;28;20523;-94
2022/02/07 14:53:13;;;;;;;10.83;1.97;;;5.40;99.90;;;;;;5023621;28;20175;-93
2022/02/07 14:55:40;;;;;;;12.27;2.00;;;5.30;99.90;;;;;;5023947;28;20539;-93
2022/02/07 14:58:06;;;;;;;11.53;2.40;;;5.20;99.90;;;;;;5025526;28;20210;-94
2022/02/07 15:00:38;;;;;;;10.40;2.10;;;5.30;99.90;;;;;;5026505;28;20171;-93
2022/02/07 15:03:05;;;;;;;11.03;2.20;;;5.30;99.90;;;;;;5025887;28;20187;-93
2022/02/07 15:05:34;;;;;;;9.13;2.17;;;5.20;99.90;;;;;;5042856;28;20241;-92
2022/02/07 15:08:02;;;;;;;9.97;2.07;;;5.20;99.90;;;;;;5042879;28;20180;-93
2022/02/07 15:10:28;;;;;;;9.37;2.00;;;5.30;99.90;;;;;;5046730;28;20179;-93
2022/02/07 15:12:55;;;;;;;15.17;2.07;;;5.30;99.90;;;;;;5027351;28;20163;-91
2022/02/07 15:15:21;;;;;;;8.70;2.47;;;5.20;99.90;;;;;;5042529;28;20183;-94
2022/02/07 15:17:47;;;;;;;20.10;2.73;;;5.20;99.90;;;;;;5040257;28;20175;-93
2022/02/07 15:20:14;;;;;;;13.43;2.77;;;5.00;99.90;;;;;;5021994;28;20191;-94
2022/02/07 15:22:48;;;;;;;8.10;1.70;;;4.70;99.90;;;;;;5039327;28;20214;-93
2022/02/07 15:25:18;;;;;;;10.50;1.77;;;4.20;99.90;;;;;;5025237;28;20298;-96
2022/02/07 15:27:49;;;;;;;12.53;2.30;;;4.10;99.90;;;;;;5039199;28;20191;-92
2022/02/07 15:30:18;;;;;;;5.50;1.50;;;3.80;99.90;;;;;;5022131;28;20673;-93
2022/02/07 15:32:48;;;;;;;5.23;1.20;;;3.70;99.90;;;;;;5039077;28;20194;-93
2022/02/07 15:35:15;;;;;;;7.70;1.60;;;3.70;99.90;;;;;;5038963;28;20214;-94
2022/02/07 15:37:41;;;;;;;7.57;1.73;;;3.70;99.90;;;;;;5021799;28;20187;-92
2022/02/07 15:40:28;;;;;;;6.17;1.40;;;3.60;99.90;;;;;;5024047;28;20199;-93
2022/02/07 15:42:56;;;;;;;7.23;1.43;;;3.70;99.90;;;;;;5023784;28;20179;-96